Data for 04/06/2008

Time Sea-Level Adjusted Pressure Absolute Pressure Temperature Relative Humidity Dew Point   
(mb) (inHg) (mb) (inHg) (C) (F) (%) (C) (F)
00:05 1013 29.91 842 24.86 -1.9 28.5 164 5 41
00:10 1013 29.91 842 24.86 -1.9 28.7 164 5.1 41.1
00:15 1013 29.91 842 24.86 -1.7 28.9 164 5.2 41.4
00:20 1013 29.91 842 24.86 -1.7 29 164 5.2 41.4
00:25 1013 29.91 842 24.86 -1.8 28.8 164 5.1 41.2
00:30 1013 29.91 842 24.86 -2 28.5 164 4.9 40.9
00:35 1013 29.91 842 24.86 -2.4 27.6 165 4.5 40.1
00:40 1013 29.91 842 24.86 -2.8 27 164 4.1 39.4
00:45 1013 29.91 842 24.86 -3 26.5 164 3.8 38.9
00:50 1013 29.91 842 24.86 -3.1 26.3 164 3.7 38.7
00:55 1013 29.91 842 24.86 -3.1 26.5 165 3.8 38.9
01:00 1013 29.91 842 24.86 -2.9 26.8 165 4 39.1
01:05 1013 29.91 842 24.86 -2.9 26.8 165 4 39.2
01:10 1013 29.91 842 24.86 -3.3 26 165 3.5 38.4
01:15 1013 29.91 842 24.86 -3.6 25.5 165 3.2 37.8
01:20 1013 29.91 842 24.86 -4 24.9 165 2.9 37.2
01:25 1013 29.91 842 24.86 -4.2 24.4 165 2.6 36.7
01:30 1013 29.91 842 24.86 -4.2 24.4 165 2.6 36.7
01:35 1013 29.91 842 24.86 -4.1 24.6 165 2.7 36.9
01:40 1013 29.91 842 24.86 -3.8 25.1 165 3 37.5
01:45 1013 29.91 842 24.86 -3.9 25.1 165 3 37.4
01:50 1013 29.91 842 24.86 -4.2 24.5 165 2.7 36.8
01:55 1013 29.91 842 24.86 -4.4 24 165 2.4 36.3
02:00 1012 29.88 842 24.86 -5 23 165 1.8 35.2
02:05 1012 29.88 842 24.86 -5.5 22.1 165 1.3 34.3
02:10 1012 29.88 842 24.86 -5.5 22.1 165 1.3 34.3
02:15 1012 29.88 842 24.86 -5.5 22.2 165 1.3 34.4
02:20 1012 29.88 842 24.86 -5.1 22.8 165 1.7 35
02:25 1012 29.88 842 24.86 -4.7 23.5 165 2.1 35.7
02:30 1013 29.91 842 24.86 -4.8 23.3 165 2 35.5
02:35 1013 29.91 842 24.86 -5.1 22.9 165 1.7 35.1
02:40 1013 29.91 842 24.86 -5.2 22.6 165 1.5 34.8
02:45 1013 29.91 842 24.86 -5.4 22.4 165 1.4 34.5
02:50 1012 29.88 842 24.86 -5.4 22.3 165 1.4 34.5
02:55 1012 29.88 842 24.86 -5 22.9 165 1.8 35.2
03:00 1012 29.88 842 24.86 -5 23.1 165 1.8 35.3
03:05 1012 29.88 842 24.86 -5.2 22.7 165 1.6 34.9
03:10 1012 29.88 842 24.86 -5.2 22.6 165 1.6 34.8
03:15 1012 29.88 842 24.86 -5.5 22.1 165 1.3 34.3
03:20 1012 29.88 842 24.86 -5.5 22 165 1.2 34.2
03:25 1012 29.88 841 24.83 -5.5 22 165 1.2 34.2
03:30 1012 29.88 841 24.83 -5.6 21.9 165 1.1 34
03:35 1012 29.88 841 24.83 -5.6 21.9 165 1.2 34.1
03:40 1012 29.88 841 24.83 -5.7 21.8 165 1.1 33.9
03:45 1012 29.88 841 24.83 -5.7 21.8 165 1.1 33.9
03:50 1012 29.88 841 24.83 -5.6 22 165 1.2 34.1
03:55 1012 29.88 841 24.83 -5.6 21.9 165 1.2 34.1
04:00 1012 29.88 841 24.83 -5.7 21.7 165 1.1 33.9
04:05 1012 29.88 841 24.83 -5.9 21.5 165 0.9 33.6
04:10 1012 29.88 841 24.83 -6 21.2 165 0.8 33.4
04:15 1012 29.88 841 24.83 -5.7 21.8 165 1.1 33.9
04:20 1012 29.88 841 24.83 -5.4 22.2 160 0.9 33.7
04:25 1012 29.88 841 24.83 -5.2 22.6 122 -2.6 27.3
04:30 1012 29.88 841 24.83 -5 23 91 -6.3 20.6
04:35 1012 29.88 841 24.83 -4.9 23.2 87 -6.7 19.9
04:40 1012 29.88 841 24.83 -5 23 87 -6.9 19.6
04:45 1012 29.88 841 24.83 -5.2 22.6 86 -7.2 19.1
04:50 1012 29.88 841 24.83 -5.6 22 87 -7.4 18.6
04:55 1012 29.88 841 24.83 -5.8 21.5 87 -7.6 18.3
05:00 1012 29.88 841 24.83 -6 21.2 88 -7.7 18.1
05:05 1012 29.88 841 24.83 -6.3 20.8 88 -7.9 17.8
05:10 1012 29.88 841 24.83 -6.3 20.6 88 -8 17.6
05:15 1012 29.88 842 24.86 -6.6 20.2 89 -8.1 17.4
05:20 1012 29.88 841 24.83 -6.4 20.4 88 -8 17.5
05:25 1012 29.88 841 24.83 -6.3 20.6 88 -8 17.6
05:30 1012 29.88 841 24.83 -6.4 20.5 88 -8.1 17.4
05:35 1012 29.88 841 24.83 -6.6 20 88 -8.3 17
05:40 1012 29.88 841 24.83 -6.9 19.6 89 -8.4 16.9
05:45 1012 29.88 841 24.83 -6.7 19.9 89 -8.3 17.1
05:50 1012 29.88 841 24.83 -6.4 20.6 88 -8.1 17.5
05:55 1012 29.88 841 24.83 -6.2 20.9 87 -8.1 17.5
06:00 1012 29.88 841 24.83 -6.5 20.3 88 -8.1 17.4
06:05 1012 29.88 842 24.86 -6 21.2 87 -7.8 17.9
06:10 1012 29.88 842 24.86 -5.8 21.5 85 -8 17.6
06:15 1012 29.88 842 24.86 -5.8 21.6 84 -8 17.6
06:20 1012 29.88 842 24.86 -5.6 21.9 83 -8 17.5
06:25 1012 29.88 842 24.86 -5.9 21.3 85 -8.1 17.4
06:30 1012 29.88 842 24.86 -5.6 21.9 84 -8 17.7
06:35 1012 29.88 842 24.86 -5.8 21.6 84 -8.1 17.3
06:40 1012 29.88 842 24.86 -6.1 21 84 -8.4 16.9
06:45 1012 29.88 842 24.86 -6.6 20.2 85 -8.7 16.4
06:50 1012 29.88 842 24.86 -6.7 19.9 86 -8.8 16.2
06:55 1012 29.88 842 24.86 -6.9 19.6 86 -8.8 16.1
07:00 1012 29.88 842 24.86 -6.9 19.6 87 -8.7 16.3
07:05 1012 29.88 842 24.86 -6.8 19.7 86 -8.7 16.3
07:10 1012 29.88 842 24.86 -7.1 19.3 87 -8.9 15.9
07:15 1012 29.88 842 24.86 -7.2 19 87 -9.1 15.6
07:20 1012 29.88 842 24.86 -7.4 18.8 87 -9.2 15.5
07:25 1012 29.88 842 24.86 -7.2 19.1 87 -9 15.8
07:30 1012 29.88 842 24.86 -7 19.5 87 -8.8 16.1
07:35 1012 29.88 842 24.86 -6.8 19.8 87 -8.7 16.4
07:40 1012 29.88 842 24.86 -6.6 20.1 86 -8.6 16.6
07:45 1012 29.88 842 24.86 -6.6 20.2 87 -8.4 16.8
07:50 1012 29.88 842 24.86 -6.4 20.5 87 -8.2 17.2
07:55 1012 29.88 842 24.86 -6.2 20.9 86 -8.2 17.2
08:00 1012 29.88 842 24.86 -6.2 20.8 86 -8.3 17.1
08:05 1012 29.88 842 24.86 -6 21.2 85 -8.1 17.5
08:10 1013 29.91 842 24.86 -5.6 21.9 85 -7.8 18
08:15 1013 29.91 842 24.86 -5.2 22.7 84 -7.5 18.5
08:20 1012 29.88 842 24.86 -5 23.1 83 -7.5 18.5
08:25 1013 29.91 842 24.86 -4.8 23.3 82 -7.5 18.5
08:30 1013 29.91 842 24.86 -4.7 23.5 81 -7.5 18.5
08:35 1013 29.91 842 24.86 -4.6 23.7 80 -7.5 18.4
08:40 1013 29.91 842 24.86 -4.3 24.3 78 -7.5 18.5
08:45 1013 29.91 842 24.86 -4.2 24.4 78 -7.5 18.5
08:50 1013 29.91 842 24.86 -4.1 24.7 78 -7.4 18.6
08:55 1013 29.91 842 24.86 -3.8 25.2 76 -7.4 18.7
09:00 1013 29.91 842 24.86 -3.5 25.6 76 -7.2 19.1
09:05 1013 29.91 842 24.86 -3.1 26.5 75 -6.9 19.5
09:10 1013 29.91 842 24.86 -2.7 27.2 72 -7 19.4
09:15 1013 29.91 842 24.86 -2.4 27.7 72 -6.7 20
09:20 1013 29.91 842 24.86 -1.6 29.1 70 -6.5 20.3
09:25 1013 29.91 842 24.86 -1.2 29.8 68 -6.3 20.6
09:30 1013 29.91 842 24.86 -1.1 30.1 67 -6.4 20.6
09:35 1013 29.91 842 24.86 -0.6 31 65 -6.3 20.7
09:40 1013 29.91 842 24.86 -0.1 31.8 64 -6.1 21.1
09:45 1013 29.91 842 24.86 0.6 33.1 59 -6.6 20.1
09:50 1013 29.91 842 24.86 0.1 32.2 61 -6.6 20.1
09:55 1013 29.91 842 24.86 0 32.1 61 -6.6 20.1
10:00 1013 29.91 842 24.86 0.4 32.7 60 -6.5 20.2
10:05 1013 29.91 842 24.86 0.6 33 59 -6.5 20.3
10:10 1013 29.91 842 24.86 0.6 33.1 60 -6.2 20.8
10:15 1013 29.91 842 24.86 0.8 33.4 60 -6.2 20.8
10:20 1013 29.91 842 24.86 1.2 34.1 58 -6.3 20.7
10:25 1013 29.91 842 24.86 1.2 34.2 59 -5.8 21.5
10:30 1013 29.91 842 24.86 1.3 34.3 60 -5.6 22
10:35 1013 29.91 842 24.86 1.6 34.9 59 -5.5 22.1
10:40 1013 29.91 842 24.86 2.1 35.8 58 -5.3 22.4
10:45 1013 29.91 842 24.86 2.1 35.8 58 -5.4 22.3
10:50 1013 29.91 842 24.86 1.5 34.7 58 -5.8 21.5
10:55 1013 29.91 842 24.86 1 33.8 59 -6.1 21.1
11:00 1013 29.91 842 24.86 0 32 65 -5.8 21.6
11:05 1013 29.91 842 24.86 0.5 33 63 -5.7 21.8
11:10 1013 29.91 842 24.86 0.2 32.4 64 -5.8 21.5
11:15 1013 29.91 842 24.86 0.8 33.4 63 -5.4 22.3
11:20 1013 29.91 842 24.86 1 33.8 62 -5.4 22.3
11:25 1013 29.91 842 24.86 0.1 32.1 64 -5.9 21.4
11:30 1013 29.91 842 24.86 -0.1 31.8 66 -5.7 21.8
11:35 1013 29.91 842 24.86 0.6 33 64 -5.4 22.3
11:40 1013 29.91 842 24.86 1.4 34.5 61 -5.3 22.5
11:45 1013 29.91 842 24.86 1.9 35.4 59 -5.3 22.4
11:50 1013 29.91 842 24.86 1.2 34.2 59 -5.9 21.4
11:55 1013 29.91 842 24.86 0.5 33 63 -5.8 21.6
12:00 1013 29.91 842 24.86 0.7 33.2 63 -5.7 21.8
12:05 1013 29.91 842 24.86 1.2 34.2 61 -5.4 22.3
12:10 1013 29.91 842 24.86 1.4 34.6 61 -5.3 22.5
12:15 1013 29.91 842 24.86 1 33.9 62 -5.4 22.3
12:20 1013 29.91 842 24.86 1 33.8 61 -5.7 21.8
12:25 1013 29.91 842 24.86 1.6 34.8 61 -5.1 22.9
12:30 1013 29.91 842 24.86 1.8 35.3 59 -5.3 22.4
12:35 1013 29.91 842 24.86 2.5 36.5 58 -4.9 23.1
12:40 1013 29.91 842 24.86 2.6 36.7 54 -5.7 21.7
12:45 1013 29.91 842 24.86 2.2 35.9 54 -6.2 20.9
12:50 1013 29.91 842 24.86 2.3 36.1 54 -6.1 21.1
12:55 1013 29.91 842 24.86 2.8 37.1 51 -6.4 20.6
13:00 1013 29.91 842 24.86 3 37.3 53 -5.6 21.9
13:05 1013 29.91 842 24.86 4 39.2 51 -5.3 22.5
13:10 1013 29.91 842 24.86 4.1 39.4 48 -5.9 21.3
13:15 1013 29.91 842 24.86 3.4 38.1 51 -5.8 21.6
13:20 1013 29.91 842 24.86 3.2 37.7 49 -6.5 20.4
13:25 1013 29.91 842 24.86 3.6 38.4 50 -5.8 21.5
13:30 1013 29.91 842 24.86 4.5 40.1 43 -7 19.3
13:35 1013 29.91 842 24.86 4.1 39.4 47 -6.3 20.7
13:40 1013 29.91 842 24.86 4.8 40.6 43 -6.7 20
13:45 1013 29.91 842 24.86 4.3 39.7 45 -6.5 20.3
13:50 1013 29.91 842 24.86 4.7 40.5 40 -7.6 18.3
13:55 1013 29.91 842 24.86 5 41 42 -7 19.5
14:00 1012 29.88 842 24.86 5.2 41.4 38 -8.1 17.4
14:05 1012 29.88 842 24.86 4.7 40.4 43 -7 19.4
14:10 1012 29.88 842 24.86 5.5 41.9 39 -7.3 18.9
14:15 1012 29.88 841 24.83 5.9 42.7 38 -7.3 18.9
14:20 1012 29.88 841 24.83 5.9 42.7 39 -7 19.4
14:25 1012 29.88 841 24.83 5.4 41.7 37 -8.3 17
14:30 1012 29.88 841 24.83 6.2 43.2 38 -7.2 19
14:35 1012 29.88 841 24.83 6.2 43.1 38 -7.3 18.9
14:40 1012 29.88 841 24.83 6.6 43.8 39 -6.4 20.4
14:45 1012 29.88 841 24.83 6.6 43.9 36 -7.4 18.6
14:50 1012 29.88 841 24.83 5.6 42.1 41 -6.6 20.1
14:55 1012 29.88 841 24.83 6.2 43.1 36 -7.9 17.8
15:00 1012 29.88 841 24.83 5.7 42.3 39 -7 19.3
15:05 1012 29.88 841 24.83 6.3 43.3 36 -7.9 17.9
15:10 1012 29.88 841 24.83 5.6 42.1 40 -7.1 19.3
15:15 1012 29.88 841 24.83 6 42.7 38 -7.3 18.9
15:20 1012 29.88 841 24.83 5.5 41.9 38 -7.6 18.3
15:25 1012 29.88 841 24.83 5.6 42 38 -7.8 17.9
15:30 1012 29.88 841 24.83 5.3 41.5 37 -8.2 17.3
15:35 1012 29.88 841 24.83 4.8 40.7 40 -7.8 18
15:40 1012 29.88 841 24.83 5.5 41.8 37 -8.1 17.3
15:45 1012 29.88 841 24.83 5.2 41.4 38 -7.9 17.8
15:50 1012 29.88 841 24.83 5.2 41.4 37 -8.1 17.4
15:55 1012 29.88 841 24.83 5.3 41.5 38 -8.1 17.5
16:00 1012 29.88 841 24.83 5.5 42 37 -8.1 17.3
16:05 1012 29.88 841 24.83 6.4 43.5 35 -8.1 17.4
16:10 1012 29.88 841 24.83 6.3 43.3 35 -8.1 17.5
16:15 1012 29.88 841 24.83 6.3 43.4 35 -8 17.7
16:20 1012 29.88 841 24.83 6.4 43.5 34 -8.4 16.9
16:25 1012 29.88 841 24.83 6.5 43.7 34 -8.2 17.2
16:30 1012 29.88 841 24.83 6.5 43.6 35 -8 17.6
16:35 1012 29.88 841 24.83 6.8 44.2 34 -7.8 17.9
16:40 1012 29.88 841 24.83 6.4 43.6 35 -7.8 17.9
16:45 1012 29.88 841 24.83 6.3 43.3 36 -7.9 17.9
16:50 1012 29.88 841 24.83 6.3 43.4 35 -8.1 17.5
16:55 1011 29.85 841 24.83 6 42.9 36 -8 17.6
17:00 1012 29.88 841 24.83 6.8 44.3 33 -8.2 17.2
17:05 1012 29.88 841 24.83 6.1 42.9 37 -7.5 18.6
17:10 1012 29.88 841 24.83 6.3 43.3 36 -7.7 18.2
17:15 1012 29.88 841 24.83 6.9 44.3 35 -7.5 18.4
17:20 1012 29.88 841 24.83 6.7 44 35 -7.7 18.2
17:25 1012 29.88 841 24.83 6.5 43.7 35 -7.7 18.1
17:30 1012 29.88 841 24.83 6.4 43.5 41 -6 21.2
17:35 1012 29.88 841 24.83 6.3 43.4 42 -5.5 22
17:40 1012 29.88 841 24.83 6.8 44.3 40 -5.9 21.3
17:45 1012 29.88 841 24.83 6.3 43.4 41 -6.1 21
17:50 1012 29.88 841 24.83 5.8 42.4 42 -6.1 21
17:55 1012 29.88 841 24.83 5.6 42.2 43 -6.1 21
18:00 1012 29.88 841 24.83 5.5 41.9 43 -6.1 21
18:05 1012 29.88 841 24.83 5.5 41.9 44 -5.9 21.4
18:10 1012 29.88 841 24.83 5.7 42.2 43 -5.8 21.5
18:15 1012 29.88 841 24.83 5.8 42.5 46 -5 23.1
18:20 1012 29.88 841 24.83 5.6 42.1 49 -4.3 24.3
18:25 1012 29.88 841 24.83 5.5 41.9 49 -4.3 24.2
18:30 1012 29.88 841 24.83 5.4 41.7 50 -4.1 24.6
18:35 1012 29.88 841 24.83 5.4 41.8 50 -4.2 24.4
18:40 1012 29.88 841 24.83 5.4 41.7 51 -3.9 25
18:45 1012 29.88 841 24.83 5.3 41.5 50 -4.3 24.2
18:50 1012 29.88 841 24.83 4.8 40.7 51 -4.4 24
18:55 1012 29.88 841 24.83 4.7 40.5 51 -4.5 23.9
19:00 1012 29.88 841 24.83 4.8 40.7 50 -4.6 23.7
19:05 1012 29.88 841 24.83 4.8 40.6 51 -4.6 23.7
19:10 1012 29.88 841 24.83 4.7 40.5 50 -4.9 23.3
19:15 1012 29.88 841 24.83 4.9 40.7 50 -4.8 23.4
19:20 1012 29.88 841 24.83 5 41.1 49 -4.8 23.4
19:25 1012 29.88 841 24.83 5.1 41.2 49 -4.8 23.3
19:30 1012 29.88 841 24.83 5 41 49 -4.8 23.3
19:35 1012 29.88 841 24.83 5 40.9 49 -4.8 23.3
19:40 1012 29.88 841 24.83 4.9 40.9 51 -4.4 24
19:45 1012 29.88 842 24.86 4.5 40.2 58 -3.1 26.4
19:50 1012 29.88 842 24.86 3.4 38 66 -2.5 27.6
19:55 1012 29.88 842 24.86 2.6 36.7 70 -2.3 27.8
20:00 1013 29.91 842 24.86 2.3 36.1 72 -2.2 28
20:05 1013 29.91 842 24.86 2.2 36 73 -2 28.3
20:10 1013 29.91 842 24.86 1.8 35.3 76 -1.9 28.6
20:15 1013 29.91 842 24.86 1.6 34.8 79 -1.7 28.9
20:20 1013 29.91 842 24.86 1.3 34.4 81 -1.6 29.1
20:25 1013 29.91 842 24.86 1.5 34.6 81 -1.5 29.4
20:30 1013 29.91 842 24.86 1.8 35.3 80 -1.3 29.7
20:35 1013 29.91 842 24.86 2.1 35.7 79 -1.1 30
20:40 1013 29.91 842 24.86 2.1 35.8 79 -1.1 30
20:45 1013 29.91 842 24.86 2.1 35.8 79 -1.2 29.9
20:50 1013 29.91 842 24.86 2.1 35.7 79 -1.2 29.9
20:55 1013 29.91 842 24.86 2 35.7 79 -1.3 29.7
21:00 1013 29.91 842 24.86 2.1 35.8 78 -1.3 29.7
21:05 1013 29.91 842 24.86 2.1 35.7 78 -1.4 29.4
21:10 1013 29.91 842 24.86 2 35.7 78 -1.5 29.3
21:15 1013 29.91 843 24.89 2 35.6 78 -1.5 29.3
21:20 1013 29.91 843 24.89 1.7 35 80 -1.3 29.6
21:25 1013 29.91 843 24.89 1.4 34.5 81 -1.5 29.2
21:30 1013 29.91 843 24.89 1.3 34.3 82 -1.5 29.3
21:35 1013 29.91 843 24.89 1.4 34.5 82 -1.4 29.5
21:40 1014 29.94 843 24.89 1.6 35 81 -1.2 29.8
21:45 1014 29.94 843 24.89 1.6 34.9 81 -1.2 29.8
21:50 1014 29.94 843 24.89 1 33.7 84 -1.5 29.4
21:55 1014 29.94 843 24.89 0.8 33.4 85 -1.5 29.3
22:00 1014 29.94 843 24.89 1.1 34.1 83 -1.4 29.6
22:05 1014 29.94 843 24.89 1.5 34.6 83 -1.1 29.9
22:10 1014 29.94 843 24.89 1.5 34.8 82 -1.1 29.9
22:15 1014 29.94 843 24.89 1.5 34.7 82 -1.2 29.9
22:20 1014 29.94 843 24.89 1.5 34.7 82 -1.2 29.8
22:25 1014 29.94 843 24.89 1.5 34.6 82 -1.3 29.7
22:30 1014 29.94 843 24.89 1.5 34.6 82 -1.2 29.8
22:35 1014 29.94 843 24.89 1.3 34.4 83 -1.2 29.8
22:40 1014 29.94 843 24.89 1.3 34.3 83 -1.2 29.8
22:45 1014 29.94 843 24.89 1.1 34 84 -1.2 29.8
22:50 1014 29.94 843 24.89 0.9 33.6 86 -1.3 29.7
22:55 1014 29.94 843 24.89 0.7 33.3 86 -1.3 29.7
23:00 1014 29.94 843 24.89 0.7 33.2 87 -1.3 29.7
23:05 1014 29.94 843 24.89 0.5 32.9 88 -1.3 29.6
23:10 1014 29.94 843 24.89 0.5 32.9 88 -1.3 29.7
23:15 1014 29.94 843 24.89 0.5 32.9 88 -1.3 29.7
23:20 1014 29.94 843 24.89 0.5 32.8 89 -1.2 29.9
23:25 1014 29.94 843 24.89 0.3 32.5 90 -1.2 29.8
23:30 1014 29.94 843 24.89 0.2 32.4 90 -1.2 29.8
23:35 1014 29.94 843 24.89 0.1 32.2 91 -1.2 29.8
23:40 1014 29.94 843 24.89 0 32.1 91 -1.3 29.7
23:45 1014 29.94 843 24.89 0 32 91 -1.3 29.6
23:50 1014 29.94 843 24.89 -0 32 90 -1.4 29.5
23:55 1014 29.94 843 24.89 -0 32 91 -1.4 29.5
24:00 1014 29.94 843 24.89 0 32.1 90 -1.4 29.6